createdAt,value
2023-03-29T00:02:30.536Z,97905.65
2023-03-29T00:05:02.246Z,97908.39
2023-03-29T00:07:33.559Z,97907.55
2023-03-29T00:10:02.711Z,97912.83
2023-03-29T00:12:31.407Z,97916.89
2023-03-29T00:14:59.347Z,97917.08
2023-03-29T00:17:27.338Z,97918.65
2023-03-29T00:19:55.508Z,97914.70
2023-03-29T00:22:23.456Z,97916.39
2023-03-29T00:24:54.610Z,97917.57
2023-03-29T00:27:22.644Z,97914.36
2023-03-29T00:29:50.790Z,97912.96
2023-03-29T00:32:18.925Z,97913.11
2023-03-29T00:34:50.962Z,97912.60
2023-03-29T00:37:18.941Z,97912.08
2023-03-29T00:39:47.134Z,97913.11
2023-03-29T00:42:17.278Z,97915.72
2023-03-29T00:44:54.351Z,97913.88
2023-03-29T00:47:35.217Z,97911.14
2023-03-29T00:50:07.024Z,97913.91
2023-03-29T00:52:35.859Z,97913.10
2023-03-29T00:55:06.084Z,97914.30
2023-03-29T00:57:34.110Z,97910.33
2023-03-29T01:00:05.185Z,97913.89
2023-03-29T01:02:34.834Z,97916.93
2023-03-29T01:05:06.685Z,97917.14
2023-03-29T01:07:38.939Z,97919.56
2023-03-29T01:10:13.040Z,97918.02
2023-03-29T01:12:46.854Z,97921.94
2023-03-29T01:15:18.874Z,97924.55
2023-03-29T01:17:51.041Z,97926.45
2023-03-29T01:20:25.303Z,97929.14
2023-03-29T01:22:53.140Z,97926.22
2023-03-29T01:25:26.790Z,97929.62
2023-03-29T01:27:55.055Z,97930.09
2023-03-29T01:30:29.983Z,97926.31
2023-03-29T01:33:00.428Z,97922.42
2023-03-29T01:35:38.780Z,97925.30
2023-03-29T01:38:14.017Z,97921.71
2023-03-29T01:40:42.661Z,97924.63
2023-03-29T01:43:40.004Z,97928.36
2023-03-29T01:46:26.799Z,97929.21
2023-03-29T01:48:57.139Z,97924.10
2023-03-29T01:51:29.524Z,97928.20
2023-03-29T01:54:04.776Z,97927.66
2023-03-29T01:56:37.023Z,97924.46
2023-03-29T01:59:08.540Z,97925.15
2023-03-29T02:01:40.584Z,97925.83
2023-03-29T02:04:11.485Z,97922.61
2023-03-29T02:06:40.063Z,97922.80
2023-03-29T02:09:08.242Z,97925.33
2023-03-29T02:11:36.527Z,97919.36
2023-03-29T02:14:04.497Z,97921.56
2023-03-29T02:16:36.920Z,97920.38
2023-03-29T02:19:05.548Z,97918.17
2023-03-29T02:21:54.042Z,97920.70
2023-03-29T02:24:24.015Z,97922.41
2023-03-29T02:26:52.818Z,97922.91
2023-03-29T02:29:20.771Z,97921.22
2023-03-29T02:31:48.686Z,97923.11
2023-03-29T02:34:30.873Z,97920.41
2023-03-29T02:37:00.970Z,97921.27
2023-03-29T02:39:31.815Z,97922.81
2023-03-29T02:42:00.700Z,97924.55
2023-03-29T02:44:31.354Z,97926.98
2023-03-29T02:47:02.405Z,97926.64
2023-03-29T02:49:30.949Z,97930.55
2023-03-29T02:52:03.320Z,97931.09
2023-03-29T02:54:31.622Z,97929.05
2023-03-29T02:57:01.220Z,97930.59
2023-03-29T02:59:33.683Z,97928.91
2023-03-29T03:02:02.107Z,97930.27
2023-03-29T03:04:31.371Z,97931.97
2023-03-29T03:06:59.430Z,97931.48
2023-03-29T03:09:27.526Z,97935.10
2023-03-29T03:11:55.730Z,97938.01
2023-03-29T03:14:25.496Z,97937.17
2023-03-29T03:16:53.456Z,97932.46
2023-03-29T03:19:21.843Z,97931.47
2023-03-29T03:21:51.239Z,97930.45
2023-03-29T03:24:19.307Z,97933.38
2023-03-29T03:26:47.590Z,97929.46
2023-03-29T03:29:16.342Z,97926.42
2023-03-29T03:32:04.419Z,97929.70
2023-03-29T03:34:50.958Z,97935.33
2023-03-29T03:37:19.719Z,97941.64
2023-03-29T03:39:47.778Z,97941.14
2023-03-29T03:42:16.235Z,97950.86
2023-03-29T03:44:45.599Z,97949.67
2023-03-29T03:47:40.217Z,97951.91
2023-03-29T03:50:25.121Z,97951.02
2023-03-29T03:52:53.607Z,97954.42
2023-03-29T03:55:22.284Z,97958.54
2023-03-29T03:58:04.186Z,97961.80
2023-03-29T04:00:33.490Z,97961.80
2023-03-29T04:03:27.770Z,97967.41
2023-03-29T04:05:56.051Z,97970.34
2023-03-29T04:08:25.840Z,97971.70
2023-03-29T04:11:23.112Z,97974.44
2023-03-29T04:13:51.798Z,97977.68
2023-03-29T04:16:28.689Z,97978.69
2023-03-29T04:18:58.672Z,97984.83
2023-03-29T04:21:27.594Z,97987.90
2023-03-29T04:23:55.658Z,97983.81
2023-03-29T04:26:24.049Z,97986.02
2023-03-29T04:28:58.158Z,97984.98
2023-03-29T04:31:39.978Z,97984.46
2023-03-29T04:34:27.288Z,97985.34
2023-03-29T04:36:56.604Z,97989.59
2023-03-29T04:39:32.135Z,97992.99
2023-03-29T04:42:00.296Z,97995.02
2023-03-29T04:44:34.181Z,98000.79
2023-03-29T04:47:04.323Z,98005.71
2023-03-29T04:49:52.375Z,98009.45
2023-03-29T04:52:33.436Z,98013.52
2023-03-29T04:55:02.566Z,98014.89
2023-03-29T04:57:51.364Z,98020.00
2023-03-29T05:00:27.244Z,98025.98
2023-03-29T05:03:11.720Z,98032.95
2023-03-29T05:05:42.352Z,98033.80
2023-03-29T05:08:11.037Z,98032.79
2023-03-29T05:10:59.214Z,98040.80
2023-03-29T05:13:28.265Z,98042.33
2023-03-29T05:15:57.297Z,98044.02
2023-03-29T05:18:25.735Z,98045.71
2023-03-29T05:20:54.422Z,98051.80
2023-03-29T05:23:23.816Z,98053.74
2023-03-29T05:26:10.761Z,98053.30
2023-03-29T05:28:39.559Z,98051.60
2023-03-29T05:31:08.821Z,98051.47
2023-03-29T05:33:38.608Z,98053.70
2023-03-29T05:36:14.048Z,98050.84
2023-03-29T05:38:46.818Z,98053.10
2023-03-29T05:41:16.172Z,98055.55
2023-03-29T05:44:02.874Z,98059.80
2023-03-29T05:46:31.054Z,98058.27
2023-03-29T05:49:02.556Z,98060.65
2023-03-29T05:51:49.467Z,98064.91
2023-03-29T05:54:17.597Z,98063.20
2023-03-29T05:56:46.197Z,98066.27
2023-03-29T05:59:17.723Z,98071.02
2023-03-29T06:01:48.875Z,98073.02
2023-03-29T06:04:20.881Z,98075.54
2023-03-29T06:07:18.431Z,98083.15
2023-03-29T06:09:57.735Z,98083.13
2023-03-29T06:12:26.323Z,98083.45
2023-03-29T06:15:04.953Z,98086.33
2023-03-29T06:17:41.625Z,98094.11
2023-03-29T06:20:12.565Z,98097.83
2023-03-29T06:22:43.394Z,98095.42
2023-03-29T06:25:12.492Z,98098.15
2023-03-29T06:27:40.750Z,98102.56
2023-03-29T06:30:09.370Z,98106.96
2023-03-29T06:32:38.263Z,98106.90
2023-03-29T06:35:19.622Z,98103.28
2023-03-29T06:37:54.598Z,98106.14
2023-03-29T06:40:32.366Z,98109.00
2023-03-29T06:43:00.636Z,98113.91
2023-03-29T06:45:32.799Z,98114.05
2023-03-29T06:48:03.300Z,98115.77
2023-03-29T06:50:31.810Z,98121.41
2023-03-29T06:53:08.899Z,98127.70
2023-03-29T06:55:36.873Z,98127.32
2023-03-29T06:58:27.563Z,98135.64
2023-03-29T07:01:00.493Z,98133.20
2023-03-29T07:03:39.485Z,98137.05
2023-03-29T07:06:10.414Z,98139.05
2023-03-29T07:08:47.202Z,98145.34
2023-03-29T07:11:25.810Z,98144.44
2023-03-29T07:13:59.120Z,98149.20
2023-03-29T07:16:27.418Z,98153.95
2023-03-29T07:19:01.590Z,98152.54
2023-03-29T07:21:47.790Z,98161.05
2023-03-29T07:24:16.880Z,98158.40
2023-03-29T07:27:00.282Z,98157.48
2023-03-29T07:29:31.139Z,98154.86
2023-03-29T07:31:59.096Z,98160.16
2023-03-29T07:34:42.363Z,98159.60
2023-03-29T07:37:14.211Z,98157.52
2023-03-29T07:39:43.311Z,98167.41
2023-03-29T07:42:30.314Z,98169.52
2023-03-29T07:44:58.826Z,98170.89
2023-03-29T07:47:33.142Z,98174.84
2023-03-29T07:50:01.710Z,98177.45
2023-03-29T07:52:30.527Z,98178.13
2023-03-29T07:54:58.976Z,98183.29
2023-03-29T07:57:50.474Z,98183.13
2023-03-29T08:00:20.275Z,98182.82
2023-03-29T08:02:56.094Z,98179.21
2023-03-29T08:05:37.963Z,98179.52
2023-03-29T08:08:11.599Z,98175.07
2023-03-29T08:10:56.534Z,98180.36
2023-03-29T08:13:34.292Z,98189.30
2023-03-29T08:16:28.651Z,98191.65
2023-03-29T08:19:07.287Z,98197.73
2023-03-29T08:21:58.967Z,98200.48
2023-03-29T08:24:27.454Z,98205.12
2023-03-29T08:26:59.028Z,98207.67
2023-03-29T08:29:27.711Z,98207.67
2023-03-29T08:31:57.400Z,98212.29
2023-03-29T08:34:25.874Z,98209.55
2023-03-29T08:37:17.394Z,98210.54
2023-03-29T08:39:48.659Z,98211.73
2023-03-29T08:42:45.098Z,98209.30
2023-03-29T08:45:17.464Z,98209.87
2023-03-29T08:48:04.705Z,98214.80
2023-03-29T08:50:38.990Z,98219.02
2023-03-29T08:53:13.095Z,98214.67
2023-03-29T08:56:18.691Z,98214.96
2023-03-29T08:59:06.716Z,98220.44
2023-03-29T09:01:36.430Z,98218.66
2023-03-29T09:04:16.574Z,98220.80
2023-03-29T09:06:54.572Z,98223.73
2023-03-29T09:09:29.405Z,98216.88
2023-03-29T09:12:11.525Z,98210.11
2023-03-29T09:14:40.702Z,98207.69
2023-03-29T09:17:18.301Z,98215.33
2023-03-29T09:19:55.389Z,98205.77
2023-03-29T09:22:23.464Z,98208.41
2023-03-29T09:25:04.053Z,98207.20
2023-03-29T09:27:32.592Z,98211.51
2023-03-29T09:30:26.074Z,98209.55
2023-03-29T09:33:06.272Z,98214.60
2023-03-29T09:35:51.674Z,98220.47
2023-03-29T09:38:21.611Z,98222.86
2023-03-29T09:40:53.952Z,98218.64
2023-03-29T09:43:32.100Z,98220.54
2023-03-29T09:46:03.562Z,98224.39
2023-03-29T09:48:35.033Z,98227.58
2023-03-29T09:51:05.466Z,98224.70
2023-03-29T09:53:33.597Z,98217.18
2023-03-29T09:56:24.812Z,98215.67
2023-03-29T09:59:00.771Z,98218.02
2023-03-29T10:01:37.284Z,98214.11
2023-03-29T10:04:06.731Z,98217.80
2023-03-29T10:06:35.595Z,98219.52
2023-03-29T10:09:04.832Z,98223.82
2023-03-29T10:11:41.914Z,98227.53
2023-03-29T10:14:14.391Z,98226.50
2023-03-29T10:16:46.879Z,98224.67
2023-03-29T10:19:15.301Z,98220.42
2023-03-29T10:21:43.225Z,98224.55
2023-03-29T10:24:11.586Z,98226.45
2023-03-29T10:26:39.564Z,98218.59
2023-03-29T10:29:08.445Z,98223.16
2023-03-29T10:31:41.762Z,98226.42
2023-03-29T10:34:13.028Z,98227.02
2023-03-29T10:36:45.160Z,98227.58
2023-03-29T10:39:15.683Z,98226.63
2023-03-29T10:41:44.865Z,98227.61
2023-03-29T10:44:32.785Z,98222.46
2023-03-29T10:47:08.786Z,98218.29
2023-03-29T10:49:41.140Z,98217.20
2023-03-29T10:52:09.637Z,98219.01
2023-03-29T10:54:37.600Z,98220.73
2023-03-29T10:57:10.469Z,98216.66
2023-03-29T10:59:45.322Z,98217.36
2023-03-29T11:02:13.148Z,98211.00
2023-03-29T11:04:44.229Z,98206.41
2023-03-29T11:07:31.533Z,98204.02
2023-03-29T11:10:04.245Z,98203.38
2023-03-29T11:12:32.082Z,98191.39
2023-03-29T11:15:19.310Z,98183.48
2023-03-29T11:18:05.786Z,98185.11
2023-03-29T11:20:33.787Z,98186.53
2023-03-29T11:23:27.665Z,98185.23
2023-03-29T11:26:09.972Z,98189.97
2023-03-29T11:28:50.062Z,98180.76
2023-03-29T11:31:21.528Z,98169.52
2023-03-29T11:34:01.744Z,98167.05
2023-03-29T11:36:44.892Z,98161.58
2023-03-29T11:39:42.521Z,98160.67
2023-03-29T11:42:29.543Z,98164.09
2023-03-29T11:44:58.767Z,98168.13
2023-03-29T11:47:30.636Z,98170.90
2023-03-29T11:50:07.985Z,98164.38
2023-03-29T11:52:36.191Z,98159.87
2023-03-29T11:55:11.526Z,98153.59
2023-03-29T11:57:39.574Z,98148.45
2023-03-29T12:00:07.758Z,98149.70
2023-03-29T12:02:48.326Z,98148.87
2023-03-29T12:05:34.926Z,98147.92
2023-03-29T12:08:09.342Z,98152.08
2023-03-29T12:10:40.598Z,98155.04
2023-03-29T12:13:14.418Z,98154.67
2023-03-29T12:15:44.413Z,98153.66
2023-03-29T12:18:38.599Z,98155.86
2023-03-29T12:21:12.431Z,98154.31
2023-03-29T12:23:41.801Z,98145.59
2023-03-29T12:26:24.603Z,98142.80
2023-03-29T12:28:58.747Z,98157.80
2023-03-29T12:31:32.653Z,98157.64
2023-03-29T12:34:10.648Z,98158.13
2023-03-29T12:36:57.456Z,98160.14
2023-03-29T12:39:44.327Z,98158.25
2023-03-29T12:42:31.085Z,98157.96
2023-03-29T12:45:19.855Z,98157.73
2023-03-29T12:47:50.326Z,98158.08
2023-03-29T12:50:32.481Z,98156.08
2023-03-29T12:53:16.833Z,98153.20
2023-03-29T12:55:44.794Z,98152.97
2023-03-29T12:58:41.643Z,98157.26
2023-03-29T13:01:22.871Z,98155.73
2023-03-29T13:03:52.352Z,98157.34
2023-03-29T13:06:28.691Z,98163.90
2023-03-29T13:09:05.123Z,98155.08
2023-03-29T13:11:41.522Z,98152.64
2023-03-29T13:14:20.348Z,98150.30
2023-03-29T13:16:48.325Z,98145.36
2023-03-29T13:19:36.155Z,98141.38
2023-03-29T13:22:04.224Z,98152.93
2023-03-29T13:24:32.092Z,98143.42
2023-03-29T13:27:10.188Z,98145.06
2023-03-29T13:30:04.794Z,98146.70
2023-03-29T13:32:32.777Z,98145.92
2023-03-29T13:35:15.890Z,98137.80
2023-03-29T13:37:44.270Z,98133.83
2023-03-29T13:40:30.670Z,98136.23
2023-03-29T13:42:59.994Z,98134.05
2023-03-29T13:45:30.503Z,98138.67
2023-03-29T13:48:24.609Z,98147.48
2023-03-29T13:51:12.729Z,98140.98
2023-03-29T13:53:44.263Z,98138.48
2023-03-29T13:56:17.366Z,98143.80
2023-03-29T13:58:51.378Z,98139.33
2023-03-29T14:01:26.126Z,98132.45
2023-03-29T14:03:55.838Z,98132.45
2023-03-29T14:06:29.522Z,98133.88
2023-03-29T14:08:59.849Z,98134.63
2023-03-29T14:11:29.242Z,98131.96
2023-03-29T14:14:01.747Z,98126.85
2023-03-29T14:16:31.763Z,98128.86
2023-03-29T14:19:00.423Z,98132.10
2023-03-29T14:21:28.297Z,98134.86
2023-03-29T14:23:58.933Z,98140.64
2023-03-29T14:26:30.888Z,98138.66
2023-03-29T14:29:01.435Z,98139.56
2023-03-29T14:31:36.804Z,98137.67
2023-03-29T14:34:06.780Z,98137.02
2023-03-29T14:36:35.037Z,98138.44
2023-03-29T14:39:05.785Z,98137.34
2023-03-29T14:41:35.824Z,98137.83
2023-03-29T14:44:05.919Z,98137.60
2023-03-29T14:46:34.678Z,98138.71
2023-03-29T14:49:02.971Z,98134.71
2023-03-29T14:51:31.375Z,98139.69
2023-03-29T14:54:00.330Z,98142.55
2023-03-29T14:56:29.358Z,98139.58
2023-03-29T14:58:57.741Z,98139.54
2023-03-29T15:01:27.208Z,98139.59
2023-03-29T15:04:09.254Z,98137.86
2023-03-29T15:06:39.477Z,98139.95
2023-03-29T15:09:13.161Z,98138.13
2023-03-29T15:11:41.333Z,98144.58
2023-03-29T15:14:14.420Z,98147.46
2023-03-29T15:16:43.951Z,98152.80
2023-03-29T15:19:16.302Z,98151.45
2023-03-29T15:21:44.861Z,98152.24
2023-03-29T15:24:42.351Z,98147.91
2023-03-29T15:27:14.823Z,98145.62
2023-03-29T15:29:43.820Z,98145.77
2023-03-29T15:32:33.842Z,98152.30
2023-03-29T15:35:03.046Z,98154.33
2023-03-29T15:37:31.211Z,98153.05
2023-03-29T15:39:59.537Z,98161.55
2023-03-29T15:42:27.729Z,98158.87
2023-03-29T15:44:56.531Z,98166.38
2023-03-29T15:47:24.664Z,98166.66
2023-03-29T15:49:53.173Z,98167.63
2023-03-29T15:52:21.658Z,98171.41
2023-03-29T15:54:49.625Z,98171.74
2023-03-29T15:57:17.998Z,98174.30
2023-03-29T15:59:46.487Z,98179.69
2023-03-29T16:02:16.563Z,98178.14
2023-03-29T16:04:44.780Z,98181.91
2023-03-29T16:07:17.255Z,98186.58
2023-03-29T16:09:46.377Z,98186.91
2023-03-29T16:12:16.470Z,98191.75
2023-03-29T16:14:44.433Z,98188.84
2023-03-29T16:17:12.509Z,98187.52
2023-03-29T16:19:40.622Z,98189.77
2023-03-29T16:22:08.481Z,98194.56
2023-03-29T16:24:36.507Z,98193.49
2023-03-29T16:27:04.828Z,98195.54
2023-03-29T16:29:33.089Z,98198.84
2023-03-29T16:32:01.264Z,98202.86
2023-03-29T16:34:30.245Z,98202.08
2023-03-29T16:36:58.312Z,98203.21
2023-03-29T16:39:26.399Z,98205.33
2023-03-29T16:41:54.457Z,98205.46
2023-03-29T16:44:23.907Z,98204.71
2023-03-29T16:46:58.014Z,98205.95
2023-03-29T16:49:26.457Z,98206.35
2023-03-29T16:51:54.316Z,98209.61
2023-03-29T16:54:25.908Z,98210.30
2023-03-29T16:56:54.014Z,98214.46
2023-03-29T16:59:22.536Z,98214.85
2023-03-29T17:01:50.835Z,98218.16
2023-03-29T17:04:19.017Z,98226.21
2023-03-29T17:06:47.251Z,98226.86
2023-03-29T17:09:17.017Z,98229.31
2023-03-29T17:11:45.267Z,98232.02
2023-03-29T17:14:13.618Z,98235.59
2023-03-29T17:16:41.635Z,98239.04
2023-03-29T17:19:09.622Z,98243.07
2023-03-29T17:21:39.872Z,98247.61
2023-03-29T17:24:08.142Z,98249.30
2023-03-29T17:26:36.063Z,98257.34
2023-03-29T17:29:04.712Z,98262.48
2023-03-29T17:31:34.978Z,98264.16
2023-03-29T17:34:03.633Z,98269.22
2023-03-29T17:36:33.851Z,98273.09
2023-03-29T17:39:02.930Z,98276.80
2023-03-29T17:41:31.322Z,98284.24
2023-03-29T17:44:02.262Z,98289.47
2023-03-29T17:46:30.372Z,98290.97
2023-03-29T17:49:00.465Z,98296.95
2023-03-29T17:51:28.620Z,98304.45
2023-03-29T17:53:57.308Z,98307.25
2023-03-29T17:56:26.525Z,98311.66
2023-03-29T17:58:54.691Z,98315.70
2023-03-29T18:01:22.610Z,98320.36
2023-03-29T18:03:50.925Z,98320.78
2023-03-29T18:06:20.740Z,98326.39
2023-03-29T18:08:48.535Z,98328.69
2023-03-29T18:11:22.295Z,98329.23
2023-03-29T18:13:51.356Z,98331.14
2023-03-29T18:16:20.215Z,98336.16
2023-03-29T18:18:48.890Z,98337.38
2023-03-29T18:21:17.164Z,98340.83
2023-03-29T18:23:47.068Z,98340.84
2023-03-29T18:26:17.209Z,98341.36
2023-03-29T18:28:48.849Z,98344.77
2023-03-29T18:31:17.149Z,98347.20
2023-03-29T18:33:45.307Z,98345.35
2023-03-29T18:36:13.811Z,98344.38
2023-03-29T18:38:43.815Z,98342.55
2023-03-29T18:41:13.050Z,98343.44
2023-03-29T18:43:41.589Z,98345.20
2023-03-29T18:46:09.588Z,98344.89
2023-03-29T18:48:41.317Z,98346.28
2023-03-29T18:51:10.616Z,98347.67
2023-03-29T18:53:39.407Z,98345.13
2023-03-29T18:56:08.176Z,98347.92
2023-03-29T18:58:36.375Z,98342.69
2023-03-29T19:01:05.304Z,98344.98
2023-03-29T19:03:34.758Z,98348.33
2023-03-29T19:06:03.868Z,98347.91
2023-03-29T19:08:33.164Z,98353.13
2023-03-29T19:11:02.257Z,98352.89
2023-03-29T19:13:30.238Z,98351.47
2023-03-29T19:15:58.456Z,98349.14
2023-03-29T19:18:26.577Z,98352.31
2023-03-29T19:20:55.367Z,98347.28
2023-03-29T19:23:26.043Z,98346.15
2023-03-29T19:25:58.893Z,98345.36
2023-03-29T19:28:27.683Z,98341.98
2023-03-29T19:30:56.518Z,98342.38
2023-03-29T19:33:24.538Z,98338.65
2023-03-29T19:35:52.864Z,98337.34
2023-03-29T19:38:21.448Z,98335.14
2023-03-29T19:40:50.686Z,98336.20
2023-03-29T19:43:18.872Z,98333.17
2023-03-29T19:45:48.056Z,98333.71
2023-03-29T19:48:22.483Z,98332.02
2023-03-29T19:50:51.573Z,98332.05
2023-03-29T19:53:19.539Z,98330.21
2023-03-29T19:55:48.944Z,98330.23
2023-03-29T19:58:16.914Z,98329.92
2023-03-29T20:00:44.885Z,98332.70
2023-03-29T20:03:14.101Z,98336.50
2023-03-29T20:05:42.564Z,98336.70
2023-03-29T20:08:10.427Z,98338.42
2023-03-29T20:10:38.361Z,98343.08
2023-03-29T20:13:06.839Z,98343.78
2023-03-29T20:15:35.093Z,98347.02
2023-03-29T20:18:03.677Z,98345.19
2023-03-29T20:20:31.993Z,98351.39
2023-03-29T20:23:04.749Z,98354.99
2023-03-29T20:25:35.744Z,98357.59
2023-03-29T20:28:04.905Z,98357.11
2023-03-29T20:30:33.105Z,98359.85
2023-03-29T20:33:01.243Z,98354.73
2023-03-29T20:35:29.307Z,98358.52
2023-03-29T20:37:57.328Z,98359.91
2023-03-29T20:40:26.528Z,98360.42
2023-03-29T20:42:54.608Z,98361.63
2023-03-29T20:45:22.500Z,98359.58
2023-03-29T20:47:56.335Z,98360.80
2023-03-29T20:50:30.311Z,98360.64
2023-03-29T20:53:02.420Z,98359.60
2023-03-29T20:55:33.186Z,98358.25
2023-03-29T20:58:01.871Z,98353.46
2023-03-29T21:00:30.907Z,98352.98
2023-03-29T21:02:59.142Z,98355.22
2023-03-29T21:05:28.458Z,98356.06
2023-03-29T21:07:57.125Z,98353.52
2023-03-29T21:10:26.047Z,98349.77
2023-03-29T21:13:00.507Z,98349.77
2023-03-29T21:15:30.812Z,98349.60
2023-03-29T21:17:59.130Z,98351.14
2023-03-29T21:20:27.778Z,98347.23
2023-03-29T21:22:56.130Z,98346.55
2023-03-29T21:25:24.088Z,98347.59
2023-03-29T21:27:51.970Z,98347.25
2023-03-29T21:30:20.131Z,98347.10
2023-03-29T21:32:47.985Z,98346.24
2023-03-29T21:35:16.156Z,98348.82
2023-03-29T21:37:44.131Z,98347.80
2023-03-29T21:40:12.723Z,98350.20
2023-03-29T21:42:40.777Z,98352.77
2023-03-29T21:45:09.156Z,98355.00
2023-03-29T21:47:37.168Z,98352.61
2023-03-29T21:50:06.022Z,98353.63
2023-03-29T21:52:33.985Z,98354.30
2023-03-29T21:55:02.063Z,98358.40
2023-03-29T21:57:29.921Z,98356.36
2023-03-29T21:59:58.010Z,98358.55
2023-03-29T22:02:26.007Z,98363.34
2023-03-29T22:04:54.048Z,98365.39
2023-03-29T22:07:26.614Z,98366.73
2023-03-29T22:09:54.812Z,98362.63
2023-03-29T22:12:22.965Z,98363.81
2023-03-29T22:14:50.942Z,98363.64
2023-03-29T22:17:18.915Z,98365.00
2023-03-29T22:19:47.608Z,98366.70
2023-03-29T22:22:16.496Z,98364.98
2023-03-29T22:24:44.457Z,98365.48
2023-03-29T22:27:12.433Z,98365.47
2023-03-29T22:29:40.401Z,98367.52
2023-03-29T22:32:08.525Z,98369.36
2023-03-29T22:34:36.841Z,98372.42
2023-03-29T22:37:05.488Z,98375.65
2023-03-29T22:39:36.980Z,98375.13
2023-03-29T22:42:05.068Z,98377.68
2023-03-29T22:44:34.029Z,98378.37
2023-03-29T22:47:02.026Z,98379.02
2023-03-29T22:49:29.981Z,98382.75
2023-03-29T22:51:58.165Z,98387.17
2023-03-29T22:54:27.357Z,98384.27
2023-03-29T22:56:55.967Z,98386.46
2023-03-29T22:59:25.274Z,98385.95
2023-03-29T23:01:53.181Z,98385.76
2023-03-29T23:04:21.534Z,98384.90
2023-03-29T23:06:49.661Z,98385.06
2023-03-29T23:09:17.635Z,98386.92
2023-03-29T23:11:45.548Z,98388.47
2023-03-29T23:14:14.899Z,98389.15
2023-03-29T23:16:42.775Z,98391.35
2023-03-29T23:19:10.639Z,98394.55
2023-03-29T23:21:38.469Z,98393.16
2023-03-29T23:24:07.303Z,98395.70
2023-03-29T23:26:35.879Z,98401.11
2023-03-29T23:29:04.569Z,98403.13
2023-03-29T23:31:33.954Z,98402.59
2023-03-29T23:34:03.472Z,98399.33
2023-03-29T23:36:31.750Z,98395.58
2023-03-29T23:39:00.428Z,98397.44
2023-03-29T23:41:28.511Z,98394.52
2023-03-29T23:43:57.812Z,98396.54
2023-03-29T23:46:26.221Z,98395.48
2023-03-29T23:48:54.260Z,98395.27
2023-03-29T23:51:23.387Z,98393.21
2023-03-29T23:53:51.986Z,98392.83
2023-03-29T23:56:21.769Z,98394.67
2023-03-29T23:58:50.020Z,98398.72
